Time;durP1;ratioP1;P1;durP2;ratioP2;P2;SDS_P1;SDS_P2;PMS_P1;PMS_P2;Temp;Humidity;BMP_temperature;BMP_pressure;BME280_temperature;BME280_humidity;BME280_pressure;Samples;Min_cycle;Max_cycle;Signal;HPM_P1;HPM_P2
2022/12/27 00:01:57;;;;;;;3.80;0.50;;;;;;;7.40;96.07;100160.23;104969;1279;22455;-82
2022/12/27 00:04:28;;;;;;;3.50;0.40;;;;;;;7.36;96.15;100176.27;104848;1285;23670;-82
2022/12/27 00:06:59;;;;;;;1.40;0.40;;;;;;;7.31;96.20;100193.59;104762;1289;24355;-81
2022/12/27 00:09:30;;;;;;;1.50;0.30;;;;;;;7.27;96.18;100201.08;104830;1300;25218;-81
2022/12/27 00:12:02;;;;;;;2.00;0.20;;;;;;;7.20;95.82;100208.98;104732;1290;22533;-82
2022/12/27 00:14:34;;;;;;;1.60;0.20;;;;;;;7.12;95.72;100201.48;104925;1285;22783;-81
2022/12/27 00:17:05;;;;;;;2.10;0.30;;;;;;;7.08;95.78;100196.68;105213;1302;22882;-81
2022/12/27 00:19:36;;;;;;;1.30;0.30;;;;;;;7.02;95.67;100213.61;104919;1279;22891;-81
2022/12/27 00:22:07;;;;;;;3.20;0.30;;;;;;;6.96;95.86;100220.02;104696;1304;22489;-82
2022/12/27 00:24:38;;;;;;;2.60;0.30;;;;;;;6.92;96.01;100219.23;104638;1295;22515;-81
2022/12/27 00:27:10;;;;;;;1.60;0.30;;;;;;;6.89;96.15;100221.91;104636;1304;26674;-81
2022/12/27 00:29:41;;;;;;;0.90;0.30;;;;;;;6.86;95.97;100223.03;104684;1284;23466;-82
2022/12/27 00:32:12;;;;;;;0.90;0.20;;;;;;;6.86;96.03;100224.64;104706;1301;22535;-82
2022/12/27 00:34:44;;;;;;;2.10;0.70;;;;;;;6.85;96.02;100226.05;104724;1292;25288;-82
2022/12/27 00:37:19;;;;;;;2.00;0.30;;;;;;;6.84;96.16;100233.84;104650;1295;22474;-82
2022/12/27 00:39:50;;;;;;;3.30;0.50;;;;;;;6.82;96.01;100241.91;104645;1302;22588;-81
2022/12/27 00:42:21;;;;;;;1.60;0.30;;;;;;;6.82;95.94;100243.66;104716;1308;23227;-81
2022/12/27 00:44:52;;;;;;;3.50;0.30;;;;;;;6.82;95.79;100248.35;104671;1299;24241;-82
2022/12/27 00:47:23;;;;;;;2.60;0.50;;;;;;;6.82;95.50;100253.71;104681;1285;24259;-82
2022/12/27 00:49:55;;;;;;;3.30;0.30;;;;;;;6.83;95.43;100258.29;104627;1304;22431;-82
2022/12/27 00:52:28;;;;;;;3.20;0.40;;;;;;;6.84;95.53;100264.59;104731;1304;22481;-81
2022/12/27 00:55:01;;;;;;;3.00;0.30;;;;;;;6.84;95.14;100261.65;104662;1285;24242;-81
2022/12/27 00:57:32;;;;;;;3.60;0.40;;;;;;;6.84;95.24;100260.17;104647;1300;25385;-82
2022/12/27 01:00:04;;;;;;;1.60;0.20;;;;;;;6.83;94.87;100264.30;104566;1304;25362;-81
2022/12/27 01:02:37;;;;;;;3.40;0.70;;;;;;;6.83;94.77;100266.52;104701;1286;22724;-82
2022/12/27 01:05:10;;;;;;;2.50;0.40;;;;;;;6.83;94.59;100273.45;104573;1292;22481;-82
2022/12/27 01:07:41;;;;;;;2.70;0.30;;;;;;;6.82;94.69;100280.30;104468;1297;26026;-81
2022/12/27 01:10:13;;;;;;;2.40;0.50;;;;;;;6.80;94.91;100279.17;104674;1296;22434;-82
2022/12/27 01:12:46;;;;;;;1.60;0.40;;;;;;;6.78;94.78;100287.27;104602;1305;25246;-82
2022/12/27 01:15:18;;;;;;;3.70;0.50;;;;;;;6.76;94.95;100285.91;104506;1304;22470;-82
2022/12/27 01:17:51;;;;;;;2.80;0.40;;;;;;;6.73;94.68;100288.24;104524;1299;22463;-82
2022/12/27 01:20:23;;;;;;;1.30;0.40;;;;;;;6.70;94.91;100292.80;104681;1304;22467;-82
2022/12/27 01:22:55;;;;;;;3.80;0.60;;;;;;;6.68;94.94;100289.92;104597;1304;24268;-82
2022/12/27 01:25:26;;;;;;;1.90;0.40;;;;;;;6.65;95.00;100303.51;104502;1304;22588;-82
2022/12/27 01:27:57;;;;;;;3.20;0.60;;;;;;;6.63;95.13;100312.45;104608;1294;22514;-82
2022/12/27 01:30:30;;;;;;;3.50;0.60;;;;;;;6.60;95.16;100312.80;104680;1304;22678;-81
2022/12/27 01:33:01;;;;;;;2.70;0.50;;;;;;;6.57;95.09;100312.84;104549;1304;22699;-82
2022/12/27 01:35:33;;;;;;;3.50;0.50;;;;;;;6.53;95.00;100313.73;104519;1296;25397;-81
2022/12/27 01:38:04;;;;;;;3.70;0.80;;;;;;;6.51;94.98;100322.53;104584;1304;22939;-81
2022/12/27 01:40:37;;;;;;;2.60;0.60;;;;;;;6.49;94.87;100326.66;104614;1304;22438;-81
2022/12/27 01:43:14;;;;;;;3.40;0.70;;;;;;;6.46;95.09;100332.69;104644;1303;22539;-82
2022/12/27 01:45:46;;;;;;;3.90;0.70;;;;;;;6.44;95.28;100335.38;104761;1304;22661;-81
2022/12/27 01:48:21;;;;;;;5.70;0.80;;;;;;;6.41;95.31;100336.52;104637;1300;22554;-81
2022/12/27 01:50:57;;;;;;;4.30;0.70;;;;;;;6.38;95.53;100336.23;104591;1303;22478;-81
2022/12/27 01:53:33;;;;;;;6.10;0.70;;;;;;;6.35;95.61;100342.66;104647;1304;24881;-82
2022/12/27 01:56:09;;;;;;;4.20;0.80;;;;;;;6.33;95.57;100337.98;104751;1279;22581;-81
2022/12/27 01:58:45;;;;;;;4.80;0.90;;;;;;;6.30;95.81;100339.50;104575;1303;23825;-81
2022/12/27 02:01:31;;;;;;;4.70;0.80;;;;;;;6.28;95.80;100340.83;104721;1289;22710;-82
2022/12/27 02:04:06;;;;;;;4.20;0.60;;;;;;;6.25;95.89;100342.13;104621;1295;22473;-81
2022/12/27 02:06:39;;;;;;;5.00;0.80;;;;;;;6.22;95.91;100341.36;104656;1296;22409;-81
2022/12/27 02:09:16;;;;;;;5.70;0.70;;;;;;;6.19;95.63;100342.71;104634;1303;22539;-80
2022/12/27 02:11:55;;;;;;;2.40;0.50;;;;;;;6.17;95.73;100349.77;104583;1302;22486;-81
2022/12/27 02:14:31;;;;;;;8.50;0.80;;;;;;;6.14;95.70;100356.13;104633;1300;23414;-82
2022/12/27 02:17:05;;;;;;;4.80;1.00;;;;;;;6.12;95.59;100369.03;104563;1303;22488;-82
2022/12/27 02:19:49;;;;;;;4.70;0.60;;;;;;;6.10;95.61;100374.25;104572;1303;22475;-81
2022/12/27 02:25:59;;;;;;;4.10;0.50;;;;;;;6.04;95.37;100396.44;104546;1303;25449;-82
2022/12/27 02:28:57;;;;;;;3.50;0.50;;;;;;;6.00;95.43;100409.39;104583;1303;22742;-80
2022/12/27 02:31:34;;;;;;;6.20;0.60;;;;;;;5.93;95.90;100424.13;104725;1295;22663;-80
2022/12/27 02:34:10;;;;;;;2.40;0.40;;;;;;;5.85;96.08;100444.30;104700;1294;22466;-79
2022/12/27 02:36:45;;;;;;;3.50;0.30;;;;;;;5.73;95.18;100457.62;104594;1298;22474;-79
2022/12/27 02:39:17;;;;;;;2.10;0.30;;;;;;;5.61;95.40;100466.29;104422;1301;22455;-79
2022/12/27 02:53:18;;;;;;;3.30;0.30;;;;;;;4.96;94.85;100489.20;104573;1282;22693;-78
2022/12/27 02:59:08;;;;;;;6.60;0.40;;;;;;;4.78;95.10;100490.35;104203;1302;24381;-80
2022/12/27 03:04:58;;;;;;;6.10;0.40;;;;;;;4.63;95.14;100497.46;104476;1304;24269;-81
2022/12/27 03:07:36;;;;;;;9.70;0.50;;;;;;;4.58;95.08;100503.12;104421;1303;23001;-81
2022/12/27 03:16:25;;;;;;;5.10;0.40;;;;;;;4.45;95.08;100493.09;104522;1303;22495;-81
2022/12/27 03:19:05;;;;;;;7.70;0.70;;;;;;;4.41;95.20;100499.11;104533;1303;23168;-80
2022/12/27 03:27:27;;;;;;;8.70;0.70;;;;;;;4.35;95.70;100516.59;104471;1303;22447;-81
2022/12/27 03:33:15;;;;;;;5.30;0.60;;;;;;;4.34;96.27;100529.12;104619;1301;22528;-81
2022/12/27 03:38:42;;;;;;;;;;;;;;;4.35;96.55;100523.80;104516;1297;23274;-81
2022/12/27 03:44:24;;;;;;;7.50;0.70;;;;;;;4.36;96.57;100544.64;104528;1282;23082;-81
2022/12/27 03:46:58;;;;;;;3.30;0.30;;;;;;;4.37;96.65;100551.63;104511;1304;22445;-82
2022/12/27 03:49:35;;;;;;;8.50;0.80;;;;;;;4.38;96.69;100561.89;104716;1303;24260;-82
2022/12/27 03:52:11;;;;;;;10.10;1.10;;;;;;;4.39;96.87;100576.54;104470;1298;22956;-81
2022/12/27 03:54:44;;;;;;;9.30;0.70;;;;;;;4.40;96.92;100583.23;104571;1301;22559;-81
2022/12/27 03:57:18;;;;;;;4.60;0.50;;;;;;;4.41;96.85;100590.78;104395;1282;23073;-82
2022/12/27 03:59:50;;;;;;;10.70;1.20;;;;;;;4.42;96.86;100590.77;104583;1303;22433;-81
2022/12/27 04:02:22;;;;;;;4.30;0.60;;;;;;;4.42;96.96;100602.23;104613;1304;22458;-81
2022/12/27 04:04:53;;;;;;;8.30;0.80;;;;;;;4.42;96.78;100610.12;104526;1303;22905;-82
2022/12/27 04:07:25;;;;;;;4.70;0.60;;;;;;;4.41;96.75;100615.20;104466;1289;22493;-82
2022/12/27 04:35:17;;;;;;;5.60;0.80;;;;;;;4.12;95.57;100649.14;104500;1297;24026;-82
2022/12/27 04:37:48;;;;;;;7.20;0.70;;;;;;;4.07;95.21;100654.44;104547;1303;22472;-81
2022/12/27 04:57:20;;;;;;;13.50;0.80;;;;;;;3.71;94.33;100683.77;104540;1297;22613;-82
2022/12/27 05:02:40;;;;;;;10.50;1.00;;;;;;;3.63;94.16;100678.77;104627;1289;22425;-81
2022/12/27 05:05:12;;;;;;;5.60;0.60;;;;;;;3.60;93.85;100687.13;104526;1297;24307;-81
2022/12/27 05:16:10;;;;;;;11.30;0.90;;;;;;;3.46;93.63;100696.50;104600;1298;25379;-81
2022/12/27 05:18:42;;;;;;;9.00;0.60;;;;;;;3.43;93.61;100705.72;104461;1303;22510;-81
2022/12/27 05:21:13;;;;;;;8.90;0.90;;;;;;;3.40;93.59;100716.24;104516;1303;25869;-81
2022/12/27 05:26:34;;;;;;;4.90;0.50;;;;;;;3.33;93.35;100722.83;104525;1303;23380;-81
2022/12/27 05:29:05;;;;;;;9.90;1.70;;;;;;;3.31;93.32;100720.33;104631;1290;23297;-80
2022/12/27 05:31:37;;;;;;;6.70;0.80;;;;;;;3.27;93.26;100725.51;104502;1303;22601;-81
2022/12/27 05:34:08;;;;;;;6.80;0.60;;;;;;;3.25;93.22;100740.13;104500;1283;25247;-81
2022/12/27 05:36:39;;;;;;;6.40;0.70;;;;;;;3.23;93.25;100742.61;104602;1302;22617;-82
2022/12/27 05:39:13;;;;;;;9.80;0.60;;;;;;;3.21;93.23;100740.27;104488;1301;22595;-81
2022/12/27 05:41:44;;;;;;;10.00;0.70;;;;;;;3.19;93.26;100740.06;104581;1303;25227;-82
2022/12/27 05:44:15;;;;;;;6.10;0.60;;;;;;;3.17;93.24;100741.67;104510;1303;22501;-82
2022/12/27 05:46:46;;;;;;;7.30;0.60;;;;;;;3.15;93.26;100746.66;104509;1303;22577;-81
2022/12/27 05:49:18;;;;;;;3.10;0.40;;;;;;;3.14;93.29;100751.96;104536;1302;25040;-81
2022/12/27 05:51:49;;;;;;;14.20;1.00;;;;;;;3.13;93.16;100754.88;104647;1289;22479;-80
2022/12/27 05:54:21;;;;;;;6.20;0.60;;;;;;;3.12;93.32;100755.05;104615;1303;22560;-81
2022/12/27 05:56:52;;;;;;;4.10;0.70;;;;;;;3.10;93.28;100759.19;104570;1303;25529;-82
2022/12/27 05:59:24;;;;;;;5.50;0.70;;;;;;;3.07;93.31;100766.55;104541;1278;22490;-82
2022/12/27 06:01:55;;;;;;;5.20;0.80;;;;;;;3.07;93.44;100766.79;104582;1303;22486;-81
2022/12/27 06:04:26;;;;;;;12.80;0.70;;;;;;;3.08;93.48;100770.80;104544;1303;22569;-81
2022/12/27 06:06:58;;;;;;;6.50;0.60;;;;;;;3.09;93.54;100769.69;104548;1285;23239;-82
2022/12/27 06:09:29;;;;;;;11.50;0.80;;;;;;;3.08;93.41;100770.35;104601;1300;22464;-82
2022/12/27 06:12:00;;;;;;;8.60;1.20;;;;;;;3.06;93.44;100768.85;104629;1275;22503;-81
2022/12/27 06:14:31;;;;;;;9.10;0.70;;;;;;;3.05;93.41;100772.73;104543;1297;26055;-81
2022/12/27 06:17:02;;;;;;;9.50;0.60;;;;;;;3.05;93.33;100774.86;104287;1303;22461;-81
2022/12/27 06:19:34;;;;;;;7.60;0.70;;;;;;;3.05;93.37;100774.07;104581;1280;25227;-81
2022/12/27 06:22:05;;;;;;;8.30;0.70;;;;;;;3.05;93.41;100776.13;104533;1280;22571;-80
2022/12/27 06:24:36;;;;;;;10.60;1.20;;;;;;;3.04;93.24;100777.80;104448;1303;22516;-81
2022/12/27 06:27:08;;;;;;;8.50;0.80;;;;;;;3.02;93.31;100777.81;104546;1298;24385;-81
2022/12/27 06:29:40;;;;;;;10.60;1.40;;;;;;;3.00;93.18;100783.36;104553;1303;22770;-81
2022/12/27 06:32:11;;;;;;;18.00;1.30;;;;;;;3.00;93.15;100787.79;104493;1303;22512;-81
2022/12/27 06:34:42;;;;;;;16.30;1.60;;;;;;;2.99;93.21;100793.09;104562;1303;24273;-81
2022/12/27 06:37:13;;;;;;;12.40;1.20;;;;;;;2.97;93.14;100795.08;104556;1302;22461;-81
2022/12/27 06:39:44;;;;;;;11.70;1.60;;;;;;;2.95;93.20;100802.58;104556;1296;24449;-81
2022/12/27 06:42:15;;;;;;;20.30;0.90;;;;;;;2.94;93.26;100804.33;104487;1299;22534;-81
2022/12/27 06:44:46;;;;;;;11.60;1.10;;;;;;;2.95;93.18;100806.99;104468;1282;22582;-80
2022/12/27 06:47:17;;;;;;;9.30;1.10;;;;;;;2.96;93.29;100811.48;104491;1282;25081;-80
2022/12/27 06:49:49;;;;;;;9.70;1.30;;;;;;;2.96;93.13;100815.81;104443;1281;25373;-83
2022/12/27 06:52:21;;;;;;;12.10;0.80;;;;;;;2.96;92.98;100822.98;104606;1281;22515;-84
2022/12/27 06:54:53;;;;;;;6.20;0.40;;;;;;;2.97;92.97;100829.27;104655;1280;23942;-83
2022/12/27 06:57:25;;;;;;;7.80;0.50;;;;;;;2.97;92.87;100837.45;104655;1281;22524;-84
2022/12/27 06:59:57;;;;;;;6.00;0.80;;;;;;;2.96;92.79;100840.39;104584;1288;22461;-83
2022/12/27 07:02:28;;;;;;;11.90;1.30;;;;;;;2.96;92.70;100841.34;104657;1288;22563;-83
2022/12/27 07:04:59;;;;;;;14.00;0.90;;;;;;;2.96;92.66;100844.26;104920;1282;22483;-85
2022/12/27 07:07:30;;;;;;;12.30;0.80;;;;;;;2.96;92.64;100851.29;104888;1297;22455;-84
2022/12/27 07:10:02;;;;;;;7.80;0.90;;;;;;;2.94;92.63;100850.73;104917;1278;23449;-85
2022/12/27 07:12:33;;;;;;;7.70;0.70;;;;;;;2.92;92.75;100856.20;105051;1280;25392;-83
2022/12/27 07:15:05;;;;;;;5.70;0.60;;;;;;;2.91;92.64;100859.61;104771;1293;22434;-84
2022/12/27 07:17:38;;;;;;;10.50;0.70;;;;;;;2.87;92.56;100863.11;104535;1286;22607;-84
2022/12/27 07:20:11;;;;;;;10.00;1.00;;;;;;;2.85;92.62;100865.02;104490;1288;25690;-84
2022/12/27 07:22:42;;;;;;;6.80;0.60;;;;;;;2.82;92.54;100877.20;104720;1291;22573;-80
2022/12/27 07:25:13;;;;;;;9.10;0.60;;;;;;;2.80;92.55;100880.46;104741;1284;23252;-81
2022/12/27 07:27:44;;;;;;;6.20;0.60;;;;;;;2.79;92.63;100885.51;104772;1289;22567;-81
2022/12/27 07:30:16;;;;;;;10.80;0.70;;;;;;;2.78;92.50;100889.21;104794;1304;22597;-82
2022/12/27 07:32:47;;;;;;;4.70;1.00;;;;;;;2.78;92.57;100892.05;105201;1294;22494;-79
2022/12/27 07:35:19;;;;;;;9.30;1.00;;;;;;;2.78;92.51;100902.70;105141;1304;22491;-81
2022/12/27 07:37:50;;;;;;;7.00;0.90;;;;;;;2.77;92.52;100899.95;105587;1303;22789;-80
2022/12/27 07:40:21;;;;;;;6.10;0.80;;;;;;;2.77;92.38;100908.77;105321;1291;22574;-80
2022/12/27 07:42:55;;;;;;;14.70;2.00;;;;;;;2.76;92.49;100909.48;105446;1289;22511;-80
2022/12/27 07:45:26;;;;;;;16.80;1.00;;;;;;;2.76;92.38;100917.52;105985;1288;22600;-79
2022/12/27 07:47:57;;;;;;;7.90;1.10;;;;;;;2.76;92.44;100919.80;105966;1303;22581;-79
2022/12/27 07:50:31;;;;;;;6.30;0.90;;;;;;;2.77;92.32;100920.59;105290;1282;22935;-83
2022/12/27 07:53:04;;;;;;;8.70;0.90;;;;;;;2.78;92.14;100921.04;105012;1288;22487;-81
2022/12/27 07:55:35;;;;;;;4.90;0.70;;;;;;;2.79;92.10;100923.70;104903;1290;25891;-81
2022/12/27 07:58:06;;;;;;;10.40;0.90;;;;;;;2.81;92.04;100920.23;105033;1304;22520;-81
2022/12/27 08:00:37;;;;;;;9.30;0.90;;;;;;;2.82;92.06;100922.02;104924;1290;25403;-81
2022/12/27 08:03:08;;;;;;;12.10;1.30;;;;;;;2.84;92.02;100921.61;104974;1295;22477;-81
2022/12/27 08:05:44;;;;;;;9.20;0.90;;;;;;;2.85;91.88;100925.30;104920;1281;22469;-81
2022/12/27 08:08:18;;;;;;;5.50;0.70;;;;;;;2.86;91.91;100928.43;104934;1288;23485;-81
2022/12/27 08:10:49;;;;;;;16.10;0.90;;;;;;;2.87;91.71;100933.39;105287;1300;23558;-82
2022/12/27 08:13:20;;;;;;;9.30;0.80;;;;;;;2.89;91.63;100935.65;105477;1290;22475;-82
2022/12/27 08:15:53;;;;;;;6.70;1.10;;;;;;;2.91;91.69;100937.99;105529;1297;22494;-81
2022/12/27 08:18:24;;;;;;;9.60;0.90;;;;;;;2.93;91.38;100943.89;104836;1303;22509;-81
2022/12/27 08:20:55;;;;;;;9.30;1.10;;;;;;;2.96;91.22;100948.83;105165;1288;23278;-81
2022/12/27 08:23:27;;;;;;;11.90;1.50;;;;;;;2.98;91.28;100953.54;104987;1298;22482;-82
2022/12/27 08:25:58;;;;;;;10.10;0.70;;;;;;;3.00;91.22;100948.14;104814;1274;22577;-82
2022/12/27 08:28:30;;;;;;;9.20;0.90;;;;;;;3.03;90.58;100949.30;104785;1303;22468;-81
2022/12/27 08:31:05;;;;;;;10.20;1.00;;;;;;;3.06;90.62;100954.70;104848;1279;22471;-81
2022/12/27 08:33:37;;;;;;;10.40;0.90;;;;;;;3.09;90.60;100956.73;104624;1297;22527;-82
2022/12/27 08:36:10;;;;;;;7.20;0.80;;;;;;;3.10;90.45;100959.06;104737;1297;22695;-81
2022/12/27 08:38:41;;;;;;;5.60;0.60;;;;;;;3.13;90.35;100955.80;104578;1298;23835;-82
2022/12/27 08:41:12;;;;;;;6.60;0.70;;;;;;;3.16;90.21;100958.06;104644;1289;22526;-81
2022/12/27 08:43:45;;;;;;;6.80;0.70;;;;;;;3.17;90.13;100958.36;104642;1289;22529;-81
2022/12/27 08:46:17;;;;;;;6.10;0.50;;;;;;;3.20;89.63;100953.59;104637;1304;22466;-83
2022/12/27 08:48:50;;;;;;;4.90;0.60;;;;;;;3.22;89.47;100958.14;104857;1298;22492;-81
2022/12/27 08:51:21;;;;;;;8.10;1.00;;;;;;;3.25;89.55;100961.49;104711;1282;23210;-81
2022/12/27 08:53:55;;;;;;;7.70;0.70;;;;;;;3.28;89.16;100969.27;104711;1297;22467;-81
2022/12/27 08:56:26;;;;;;;6.90;0.60;;;;;;;3.32;89.14;100967.50;104714;1291;22566;-81
2022/12/27 08:58:57;;;;;;;10.50;0.80;;;;;;;3.35;89.12;100969.12;104619;1305;23591;-81
2022/12/27 09:01:29;;;;;;;8.60;1.00;;;;;;;3.38;89.28;100972.48;104756;1291;24290;-80
2022/12/27 09:04:00;;;;;;;7.70;0.70;;;;;;;3.40;88.99;100976.63;104606;1290;23187;-79
2022/12/27 09:06:31;;;;;;;9.60;0.90;;;;;;;3.43;89.06;100978.73;104687;1306;22464;-82
2022/12/27 09:09:02;;;;;;;8.70;0.80;;;;;;;3.46;88.06;100980.33;104622;1306;22633;-80
2022/12/27 09:11:34;;;;;;;10.80;1.40;;;;;;;3.49;88.43;100983.85;104835;1290;26401;-81
2022/12/27 09:14:07;;;;;;;4.40;0.60;;;;;;;3.51;88.38;100987.85;104754;1300;22285;-80
2022/12/27 09:16:40;;;;;;;5.60;0.40;;;;;;;3.54;88.32;100986.31;104790;1284;22431;-81
2022/12/27 09:19:11;;;;;;;10.10;0.60;;;;;;;3.57;87.30;100989.04;104836;1292;22472;-81
2022/12/27 09:21:45;;;;;;;8.30;0.50;;;;;;;3.60;87.39;100989.16;104709;1294;22566;-81
2022/12/27 09:24:16;;;;;;;7.20;0.60;;;;;;;3.63;87.94;100986.98;104733;1288;24283;-81
2022/12/27 09:26:48;;;;;;;4.50;0.50;;;;;;;3.66;87.94;100989.63;104754;1298;22521;-81
2022/12/27 09:29:19;;;;;;;3.40;0.40;;;;;;;3.69;87.26;100989.29;104764;1300;22578;-81
2022/12/27 09:31:50;;;;;;;10.10;0.50;;;;;;;3.72;86.66;100980.88;104758;1306;22511;-81
2022/12/27 09:34:21;;;;;;;5.30;1.10;;;;;;;3.75;87.19;100979.34;104677;1299;22726;-81
2022/12/27 09:36:53;;;;;;;4.50;0.50;;;;;;;3.77;87.05;100974.96;104726;1274;22472;-81
2022/12/27 09:39:24;;;;;;;6.10;0.60;;;;;;;3.81;86.77;100974.50;104625;1275;22551;-80
2022/12/27 09:42:03;;;;;;;4.20;0.70;;;;;;;3.84;86.88;100978.26;104672;1300;23807;-80
2022/12/27 09:44:43;;;;;;;7.70;0.60;;;;;;;3.87;86.83;100984.30;104816;1305;23797;-79
2022/12/27 09:47:19;;;;;;;9.30;0.70;;;;;;;3.91;85.93;100983.45;104855;1296;24795;-80
2022/12/27 09:49:54;;;;;;;8.50;0.80;;;;;;;3.94;85.78;100987.50;104829;1298;23606;-80
2022/12/27 09:52:33;;;;;;;5.80;0.60;;;;;;;3.98;85.93;100984.70;105046;1283;22431;-80
2022/12/27 09:55:12;;;;;;;6.20;0.60;;;;;;;4.01;86.26;100986.79;104769;1284;22521;-80
2022/12/27 09:57:45;;;;;;;6.00;0.60;;;;;;;4.05;85.99;100993.12;104702;1298;22520;-81
2022/12/27 10:00:22;;;;;;;7.90;1.20;;;;;;;4.09;85.58;101001.20;104756;1284;25388;-80
2022/12/27 10:02:54;;;;;;;3.90;0.50;;;;;;;4.15;85.34;101003.88;104713;1303;23782;-82
2022/12/27 10:05:31;;;;;;;5.40;0.60;;;;;;;4.19;85.59;101004.37;104812;1279;22605;-80
2022/12/27 10:08:18;;;;;;;8.20;0.60;;;;;;;4.23;85.85;101004.94;104802;1303;22419;-77
2022/12/27 10:11:00;;;;;;;2.90;0.40;;;;;;;4.26;85.00;101008.39;104336;1306;23382;-78
2022/12/27 10:16:37;;;;;;;6.10;0.60;;;;;;;4.30;85.22;101012.09;99670;1321;545496;-63
2022/12/27 10:19:28;;;;;;;7.60;1.30;;;;;;;4.29;85.19;101018.84;102860;1280;25373;-61
2022/12/27 10:25:49;;;;;;;;;;;;;;;4.32;84.39;101010.41;102499;1281;24299;-61
2022/12/27 11:22:30;;;;;;;8.50;0.60;;;;;;;5.38;80.57;100980.81;102843;1300;22488;-60
2022/12/27 11:25:01;;;;;;;5.10;0.60;;;;;;;5.40;80.28;100985.61;102734;1296;25243;-57
2022/12/27 11:31:16;;;;;;;6.30;0.70;;;;;;;5.46;79.83;100996.64;106160;1272;98989;-79
2022/12/27 11:33:50;;;;;;;8.00;1.00;;;;;;;5.45;79.92;100998.86;104921;1299;22933;-79
2022/12/27 11:36:28;;;;;;;8.50;0.70;;;;;;;5.47;80.09;101003.09;104841;1292;22584;-80
2022/12/27 11:39:00;;;;;;;2.20;0.40;;;;;;;5.49;80.09;100997.11;104693;1298;26184;-79
2022/12/27 11:41:37;;;;;;;4.30;0.60;;;;;;;5.51;79.89;100988.84;104741;1299;22611;-80
2022/12/27 11:44:19;;;;;;;8.30;0.60;;;;;;;5.53;79.45;100997.35;104453;1306;23241;-79
2022/12/27 11:46:57;;;;;;;2.60;0.40;;;;;;;5.55;79.07;100992.55;104574;1303;22493;-81
2022/12/27 11:49:35;;;;;;;5.80;0.60;;;;;;;5.56;79.12;100999.42;104668;1307;22432;-81
2022/12/27 11:52:37;;;;;;;7.80;0.50;;;;;;;5.59;78.96;101007.84;104507;1307;24313;-81
2022/12/27 11:55:38;;;;;;;5.00;0.70;;;;;;;5.61;79.20;101001.60;104201;1313;25382;-81
2022/12/27 11:58:36;;;;;;;6.30;0.40;;;;;;;5.63;79.06;101001.25;104227;1313;22734;-82
2022/12/27 12:01:31;;;;;;;4.50;0.50;;;;;;;5.65;79.26;100996.06;104153;1295;25440;-79
2022/12/27 12:04:36;;;;;;;3.00;0.40;;;;;;;5.67;78.84;100996.26;104124;1304;25391;-80
2022/12/27 12:07:21;;;;;;;4.20;0.50;;;;;;;5.70;78.95;100991.93;103889;1308;22507;-80
2022/12/27 12:10:09;;;;;;;3.70;0.30;;;;;;;5.73;78.64;100991.39;103886;1305;25387;-80
2022/12/27 12:13:04;;;;;;;4.00;0.50;;;;;;;5.75;78.69;100994.05;104032;1316;24333;-80
2022/12/27 12:15:52;;;;;;;7.00;0.50;;;;;;;5.75;78.71;100989.45;103933;1312;25237;-79
2022/12/27 12:18:44;;;;;;;3.60;0.50;;;;;;;5.77;78.57;100992.17;104136;1312;25902;-79
2022/12/27 12:21:33;;;;;;;5.00;0.50;;;;;;;5.80;78.38;100997.19;103801;1316;25279;-80
2022/12/27 12:24:26;;;;;;;6.00;0.60;;;;;;;5.83;77.55;100986.52;103914;1309;22611;-79
2022/12/27 12:27:15;;;;;;;4.70;0.70;;;;;;;5.84;76.87;100995.62;103835;1314;22580;-80
2022/12/27 12:30:12;;;;;;;6.00;0.60;;;;;;;5.86;76.37;101001.91;103951;1311;25606;-80
2022/12/27 12:32:56;;;;;;;2.60;0.40;;;;;;;5.86;76.47;100999.23;103460;1317;24533;-79
2022/12/27 12:35:36;;;;;;;4.60;0.50;;;;;;;5.86;77.18;100998.27;103728;1317;22570;-79
2022/12/27 12:38:19;;;;;;;4.00;0.70;;;;;;;5.86;77.39;101002.14;103613;1317;23998;-79
2022/12/27 12:41:22;;;;;;;8.70;1.20;;;;;;;5.88;77.72;100997.36;103656;1317;23397;-79
2022/12/27 12:44:23;;;;;;;3.60;0.50;;;;;;;5.89;76.29;100999.64;103588;1314;23032;-79
2022/12/27 12:47:03;;;;;;;6.60;0.70;;;;;;;5.89;76.10;101000.04;103654;1317;22445;-80
2022/12/27 12:49:56;;;;;;;6.00;0.60;;;;;;;5.87;75.06;100993.91;103810;1317;25884;-79
2022/12/27 12:52:45;;;;;;;4.10;0.50;;;;;;;5.85;74.47;100992.84;103844;1299;22485;-79
2022/12/27 12:55:33;;;;;;;2.50;0.50;;;;;;;5.82;75.49;100993.67;103750;1317;22717;-79
2022/12/27 12:58:17;;;;;;;3.20;0.50;;;;;;;5.80;75.55;100998.55;103936;1302;22490;-79
2022/12/27 13:01:04;;;;;;;6.00;0.50;;;;;;;5.78;75.84;101000.09;103738;1310;25254;-80
2022/12/27 13:04:01;;;;;;;7.60;0.80;;;;;;;5.75;75.75;101004.10;103843;1316;22514;-81
2022/12/27 13:07:05;;;;;;;4.90;0.60;;;;;;;5.72;75.42;101010.42;103914;1315;26294;-80
2022/12/27 13:09:50;;;;;;;3.50;0.30;;;;;;;5.66;74.82;101013.06;103406;1306;22653;-80
2022/12/27 13:12:28;;;;;;;4.10;0.50;;;;;;;5.62;75.13;101015.05;103774;1294;22906;-80
2022/12/27 13:15:32;;;;;;;2.90;0.40;;;;;;;5.57;75.02;101013.57;103659;1308;25392;-81
2022/12/27 13:18:20;;;;;;;5.50;0.60;;;;;;;5.55;75.07;101019.71;103330;1309;22598;-81
2022/12/27 13:21:06;;;;;;;5.40;0.50;;;;;;;5.53;75.22;101017.14;103206;1318;22672;-80
2022/12/27 13:23:54;;;;;;;6.50;0.80;;;;;;;5.51;75.17;101014.23;103166;1316;22453;-80
2022/12/27 13:26:34;;;;;;;5.30;0.80;;;;;;;5.50;75.08;101018.84;103896;1317;22491;-81
2022/12/27 13:29:38;;;;;;;4.30;0.60;;;;;;;5.48;74.90;101025.70;103919;1315;24289;-80
2022/12/27 13:32:19;;;;;;;4.30;0.50;;;;;;;5.46;74.78;101027.01;103898;1308;22473;-80
2022/12/27 13:35:05;;;;;;;8.90;0.70;;;;;;;5.45;74.98;101033.91;103869;1309;22522;-80
2022/12/27 13:37:49;;;;;;;9.00;0.60;;;;;;;5.43;75.07;101032.27;103637;1317;22536;-80
2022/12/27 13:40:41;;;;;;;8.50;1.00;;;;;;;5.42;74.79;101044.27;103912;1317;22749;-81
2022/12/27 13:43:29;;;;;;;4.50;0.60;;;;;;;5.40;74.60;101048.18;103748;1301;22519;-80
2022/12/27 13:46:19;;;;;;;8.30;0.90;;;;;;;5.38;74.23;101042.83;103790;1293;22607;-79
2022/12/27 13:49:08;;;;;;;7.10;0.90;;;;;;;5.36;74.91;101044.29;103898;1297;22621;-80
2022/12/27 13:51:49;;;;;;;3.90;0.70;;;;;;;5.34;74.68;101041.88;104028;1307;23815;-80
2022/12/27 13:54:58;;;;;;;3.90;0.60;;;;;;;5.32;75.02;101045.38;103995;1304;22431;-80
2022/12/27 13:57:53;;;;;;;5.20;0.50;;;;;;;5.31;75.06;101050.95;103858;1312;22546;-80
2022/12/27 14:00:29;;;;;;;2.10;0.40;;;;;;;5.29;75.34;101056.04;104205;1288;22560;-80
2022/12/27 14:03:29;;;;;;;5.10;0.80;;;;;;;5.27;75.04;101061.38;104724;1310;22437;-80
2022/12/27 14:06:28;;;;;;;;;;;;;;;5.26;74.89;101069.78;104109;1298;22508;-80
2022/12/27 14:09:51;;;;;;;3.00;0.60;;;;;;;5.25;75.27;101075.58;103498;1308;22490;-80
2022/12/27 14:12:57;;;;;;;6.80;0.70;;;;;;;5.23;75.21;101078.77;103275;1315;22492;-80
2022/12/27 14:15:47;;;;;;;3.90;0.60;;;;;;;5.23;75.12;101070.71;103136;1298;23308;-79
2022/12/27 14:18:36;;;;;;;7.00;1.00;;;;;;;5.21;75.38;101074.23;103143;1309;22515;-80
2022/12/27 14:21:32;;;;;;;24.20;4.40;;;;;;;5.20;75.45;101084.92;103239;1318;22556;-80
2022/12/27 14:24:22;;;;;;;12.00;2.40;;;;;;;5.19;75.48;101089.98;103107;1299;22634;-80
2022/12/27 14:27:32;;;;;;;14.20;2.30;;;;;;;5.18;75.52;101099.66;103135;1305;25714;-79
2022/12/27 14:30:32;;;;;;;13.20;1.30;;;;;;;5.18;75.67;101101.96;102790;1316;24289;-80
2022/12/27 14:33:46;;;;;;;19.60;3.70;;;;;;;5.16;75.33;101106.91;102645;1320;22558;-80
2022/12/27 14:37:02;;;;;;;20.20;3.50;;;;;;;5.14;75.39;101099.25;103220;1295;22502;-80
2022/12/27 14:40:03;;;;;;;22.70;3.30;;;;;;;5.12;75.49;101100.46;103277;1309;22542;-80
2022/12/27 14:43:19;;;;;;;17.70;2.90;;;;;;;5.11;75.56;101101.20;103338;1320;22442;-82
2022/12/27 14:46:21;;;;;;;18.50;3.00;;;;;;;5.09;75.19;101109.70;103672;1315;22880;-80
2022/12/27 14:49:37;;;;;;;11.50;1.60;;;;;;;5.09;75.52;101114.85;103149;1313;24046;-80
2022/12/27 14:52:47;;;;;;;8.10;1.00;;;;;;;5.07;75.57;101119.46;102622;1316;23017;-81
2022/12/27 14:55:43;;;;;;;14.10;1.60;;;;;;;5.06;75.59;101123.43;102392;1330;22570;-81
2022/12/27 14:58:32;;;;;;;11.30;1.00;;;;;;;5.05;75.64;101125.27;102214;1330;22570;-82